Time;durP1;ratioP1;P1;durP2;ratioP2;P2;SDS_P1;SDS_P2;PMS_P1;PMS_P2;Temp;Humidity;BMP_temperature;BMP_pressure;BME280_temperature;BME280_humidity;BME280_pressure;Samples;Min_cycle;Max_cycle;Signal;HPM_P1;HPM_P2
2021/07/18 00:01:01;;;;;;;11.60;7.70;;;;;;;24.82;48.60;99109.78;5077020;28;20415;-23
2021/07/18 00:03:26;;;;;;;14.77;8.25;;;;;;;24.94;48.43;99113.69;5079072;28;20028;-23
2021/07/18 00:05:52;;;;;;;15.38;8.07;;;;;;;25.21;47.87;99104.91;5081911;28;20028;-23
2021/07/18 00:08:17;;;;;;;11.45;7.68;;;;;;;25.39;47.05;99104.66;5089182;28;20033;-23
2021/07/18 00:10:43;;;;;;;14.93;8.00;;;;;;;24.81;48.55;99110.94;5088553;28;20039;-23
2021/07/18 00:13:08;;;;;;;17.45;7.80;;;;;;;23.92;51.42;99100.31;5088640;28;20043;-23
2021/07/18 00:15:34;;;;;;;14.13;7.80;;;;;;;23.76;52.09;99089.19;5088591;28;20032;-23
2021/07/18 00:17:59;;;;;;;13.13;8.18;;;;;;;24.28;50.43;99098.91;5088984;28;20886;-23
2021/07/18 00:20:25;;;;;;;13.45;8.13;;;;;;;24.56;49.71;99098.34;5070466;28;20047;-23
2021/07/18 00:22:50;;;;;;;14.75;8.85;;;;;;;24.81;49.30;99110.94;5088678;28;20550;-23
2021/07/18 00:25:16;;;;;;;16.17;9.38;;;;;;;24.29;50.27;99092.31;5088466;28;20400;-23
2021/07/18 00:27:41;;;;;;;20.73;10.68;;;;;;;24.63;49.23;99106.81;5088364;28;20032;-23
2021/07/18 00:30:07;;;;;;;18.85;10.88;;;;;;;24.29;49.91;99102.44;5088410;28;20035;-23
2021/07/18 00:32:33;;;;;;;19.73;10.88;;;;;;;24.28;50.01;99101.66;5088324;28;20571;-23
2021/07/18 00:34:59;;;;;;;19.27;10.23;;;;;;;24.01;50.58;99092.09;5088183;28;20111;-23
2021/07/18 00:37:24;;;;;;;19.38;11.70;;;;;;;24.08;50.76;99102.47;5088412;28;20085;-23
2021/07/18 00:39:50;;;;;;;20.20;11.02;;;;;;;24.31;50.13;99106.41;5088297;28;20567;-23
2021/07/18 00:42:19;;;;;;;19.83;10.85;;;;;;;24.56;49.58;99114.72;5088313;28;20048;-23
2021/07/18 00:44:45;;;;;;;33.22;16.35;;;;;;;24.44;49.87;99116.25;5087997;28;20046;-23
2021/07/18 00:47:11;;;;;;;45.25;18.30;;;;;;;24.28;49.89;99098.91;5088290;28;20028;-23
2021/07/18 00:49:39;;;;;;;45.10;19.38;;;;;;;24.46;49.92;99103.09;5070037;28;20032;-23
2021/07/18 00:52:07;;;;;;;29.85;14.52;;;;;;;24.68;49.69;99120.19;5088162;28;20389;-23
2021/07/18 00:54:33;;;;;;;32.13;17.88;;;;;;;24.35;50.42;99107.34;5087663;28;20500;-23
2021/07/18 00:57:00;;;;;;;38.05;18.45;;;;;;;24.30;50.68;99107.56;5088102;28;20047;-23
2021/07/18 00:59:25;;;;;;;33.13;17.20;;;;;;;24.25;50.95;99105.03;5053653;28;20395;-23
2021/07/18 01:01:51;;;;;;;31.33;17.15;;;;;;;24.18;51.64;99104.78;5069696;28;20476;-23
2021/07/18 01:04:17;;;;;;;31.63;15.40;;;;;;;24.10;51.87;99111.09;5069641;28;20060;-23
2021/07/18 01:06:42;;;;;;;26.45;15.18;;;;;;;23.75;52.66;99116.75;5087661;28;20038;-23
2021/07/18 01:09:08;;;;;;;29.73;14.02;;;;;;;23.32;53.86;99106.91;5087614;28;20057;-23
2021/07/18 01:11:33;;;;;;;20.08;11.57;;;;;;;23.13;53.87;99101.84;5087987;28;20752;-23
2021/07/18 01:13:59;;;;;;;18.98;10.73;;;;;;;23.03;54.53;99109.25;5087794;28;20085;-23
2021/07/18 01:16:25;;;;;;;18.23;10.60;;;;;;;23.04;54.16;99099.16;5087675;28;20043;-23
2021/07/18 01:18:50;;;;;;;21.23;11.38;;;;;;;23.39;53.44;99110.69;5069262;28;20028;-23
2021/07/18 01:21:17;;;;;;;21.73;11.73;;;;;;;23.50;52.77;99104.88;5069760;28;20085;-23
2021/07/18 01:23:42;;;;;;;23.55;13.07;;;;;;;23.70;52.24;99108.75;5069399;28;20032;-23
2021/07/18 01:26:08;;;;;;;21.90;13.00;;;;;;;23.46;52.64;99121.06;5087702;28;20055;-23
2021/07/18 01:28:33;;;;;;;20.70;11.77;;;;;;;23.49;52.49;99114.97;5087470;28;20446;-23
2021/07/18 01:30:59;;;;;;;19.67;11.30;;;;;;;23.40;52.63;99109.56;5087419;28;20035;-23
2021/07/18 01:33:24;;;;;;;19.75;10.70;;;;;;;23.44;52.85;99117.88;5052808;28;20454;-23
2021/07/18 01:35:50;;;;;;;16.33;10.88;;;;;;;23.25;52.95;99121.81;5087805;28;20039;-23
2021/07/18 01:38:16;;;;;;;16.65;9.75;;;;;;;23.12;53.07;99101.03;5087477;28;20039;-23
2021/07/18 01:40:41;;;;;;;15.98;10.02;;;;;;;23.30;52.80;99126.25;5087046;28;20427;-23
2021/07/18 01:43:07;;;;;;;17.17;9.68;;;;;;;23.11;53.78;99128.56;5087220;28;20028;-23
2021/07/18 01:45:32;;;;;;;16.50;10.57;;;;;;;23.13;53.67;99123.59;5087341;28;20101;-23
2021/07/18 01:47:58;;;;;;;19.70;12.02;;;;;;;23.21;52.91;99125.47;5087366;28;20031;-23
2021/07/18 01:50:24;;;;;;;19.33;11.30;;;;;;;23.16;53.11;99112.88;5087629;28;20731;-23
2021/07/18 01:52:49;;;;;;;18.63;10.00;;;;;;;23.34;52.85;99112.81;5086677;28;20066;-23
2021/07/18 01:55:18;;;;;;;14.45;9.73;;;;;;;23.52;53.10;99125.19;5087207;28;20089;-22
2021/07/18 01:57:43;;;;;;;15.13;10.02;;;;;;;23.19;54.11;99123.13;5087306;28;20028;-23
2021/07/18 02:00:10;;;;;;;13.45;9.30;;;;;;;23.31;53.90;99129.78;5087296;28;20101;-23
2021/07/18 02:02:36;;;;;;;15.60;10.27;;;;;;;23.65;52.97;99129.59;5087361;28;20039;-23
2021/07/18 02:05:03;;;;;;;17.90;9.90;;;;;;;23.46;53.21;99126.50;5068949;28;20036;-24
2021/07/18 02:07:29;;;;;;;15.93;9.85;;;;;;;23.58;53.68;99137.50;5086944;28;20111;-23
2021/07/18 02:09:55;;;;;;;16.08;10.15;;;;;;;23.62;53.38;99129.44;5087166;28;20032;-23
2021/07/18 02:12:21;;;;;;;15.77;10.80;;;;;;;23.66;53.66;99130.41;5087192;28;20023;-23
2021/07/18 02:14:46;;;;;;;16.10;10.68;;;;;;;23.70;53.06;99119.66;5086788;28;20028;-23
2021/07/18 02:17:11;;;;;;;14.93;10.07;;;;;;;23.58;53.71;99129.34;5087302;28;20024;-23
2021/07/18 02:19:37;;;;;;;17.75;10.07;;;;;;;23.62;53.85;99119.38;5087104;28;20046;-23
2021/07/18 02:22:03;;;;;;;18.30;10.60;;;;;;;23.49;53.75;99114.97;5068878;28;20028;-23
2021/07/18 02:24:28;;;;;;;17.63;10.52;;;;;;;23.55;53.56;99119.09;5087307;28;20775;-23
2021/07/18 02:26:54;;;;;;;17.00;10.07;;;;;;;23.47;53.44;99114.50;5086813;28;20103;-23
2021/07/18 02:29:19;;;;;;;15.90;9.95;;;;;;;23.29;54.01;99121.13;5087838;28;20472;-23
2021/07/18 02:31:45;;;;;;;17.25;10.50;;;;;;;23.19;53.79;99134.00;5090731;28;20062;-23
2021/07/18 02:34:10;;;;;;;16.40;10.15;;;;;;;23.06;53.93;99113.22;5091160;28;20078;-23
2021/07/18 02:36:36;;;;;;;17.85;10.50;;;;;;;23.20;53.96;99135.56;5090833;28;20028;-23
2021/07/18 02:39:01;;;;;;;19.50;10.80;;;;;;;22.88;54.93;99128.75;5090374;28;20031;-23
2021/07/18 02:41:27;;;;;;;18.10;10.43;;;;;;;23.21;54.47;99131.75;5072357;28;20039;-23
2021/07/18 02:43:53;;;;;;;15.95;9.93;;;;;;;23.09;54.64;99128.91;5090612;28;20028;-23
2021/07/18 02:46:19;;;;;;;18.27;10.55;;;;;;;23.30;54.54;99125.47;5072511;28;20507;-23
2021/07/18 02:48:45;;;;;;;20.73;10.85;;;;;;;23.47;54.03;99128.09;5090301;28;20438;-23
2021/07/18 02:51:10;;;;;;;17.08;10.02;;;;;;;23.65;53.69;99129.59;5090436;28;20089;-24
2021/07/18 02:53:36;;;;;;;14.38;9.38;;;;;;;23.44;53.53;99124.13;5090067;28;20036;-23
2021/07/18 02:56:01;;;;;;;14.52;10.55;;;;;;;23.12;54.43;99133.69;5090400;28;20028;-23
2021/07/18 02:58:27;;;;;;;19.70;11.02;;;;;;;23.27;54.31;99124.19;5090384;28;20396;-23
2021/07/18 03:00:53;;;;;;;22.30;12.88;;;;;;;23.26;54.20;99130.75;5090132;28;20039;-23
2021/07/18 03:03:19;;;;;;;18.10;11.90;;;;;;;23.15;54.55;99135.75;5072080;28;20051;-23
2021/07/18 03:05:45;;;;;;;25.50;14.05;;;;;;;22.87;55.00;99132.63;5090530;28;20035;-23
2021/07/18 03:08:10;;;;;;;31.00;16.17;;;;;;;22.91;55.68;99149.09;5089536;28;20044;-23
2021/07/18 03:10:36;;;;;;;18.70;12.93;;;;;;;22.94;55.77;99135.63;5079974;28;20392;-23
2021/07/18 03:13:01;;;;;;;18.58;11.20;;;;;;;22.80;56.20;99137.72;5077279;28;20043;-23
2021/07/18 03:15:27;;;;;;;18.33;9.88;;;;;;;22.92;55.96;99139.78;5079043;28;20020;-23
2021/07/18 03:17:52;;;;;;;13.32;9.25;;;;;;;23.02;55.86;99137.53;5078797;28;20024;-23
2021/07/18 03:20:18;;;;;;;15.43;9.30;;;;;;;22.95;56.01;99139.16;5077365;28;20416;-23
2021/07/18 03:22:44;;;;;;;19.13;9.20;;;;;;;23.16;55.13;99148.22;5079005;28;20463;-23
2021/07/18 03:25:10;;;;;;;14.50;8.60;;;;;;;23.35;54.71;99133.44;5087596;28;20020;-23
2021/07/18 03:27:36;;;;;;;15.52;9.40;;;;;;;23.35;54.33;99155.19;5071737;28;20032;-23
2021/07/18 03:30:03;;;;;;;13.60;8.90;;;;;;;23.55;54.22;99159.91;5086169;28;20035;-23
2021/07/18 03:32:28;;;;;;;13.65;8.70;;;;;;;23.49;53.88;99142.16;5077496;28;20060;-23
2021/07/18 03:34:54;;;;;;;15.50;9.98;;;;;;;23.84;53.81;99152.91;5078414;28;20035;-23
2021/07/18 03:37:19;;;;;;;13.73;9.20;;;;;;;24.01;52.64;99169.16;5078677;28;20062;-23
2021/07/18 03:39:45;;;;;;;34.60;10.60;;;;;;;24.12;52.27;99163.31;5076909;28;20117;-23
2021/07/18 03:42:10;;;;;;;17.92;9.07;;;;;;;23.97;53.53;99161.97;5078862;28;20032;-23
2021/07/18 03:44:39;;;;;;;14.00;9.38;;;;;;;23.87;53.14;99144.09;5078144;28;20086;-23
2021/07/18 03:47:05;;;;;;;13.75;8.45;;;;;;;23.98;52.63;99169.00;5076913;28;20035;-23
2021/07/18 03:49:31;;;;;;;15.82;8.88;;;;;;;23.63;53.65;99169.97;5078489;28;20110;-23
2021/07/18 03:51:57;;;;;;;16.85;10.57;;;;;;;23.34;54.48;99167.22;5078163;28;20060;-23
2021/07/18 03:54:22;;;;;;;18.77;10.90;;;;;;;23.38;54.81;99168.16;5076374;28;20117;-23
2021/07/18 03:56:48;;;;;;;22.20;11.60;;;;;;;23.50;54.32;99171.00;5076603;28;20044;-23
2021/07/18 03:59:14;;;;;;;17.85;9.77;;;;;;;23.47;54.81;99163.47;5077695;28;20027;-23
2021/07/18 04:01:39;;;;;;;15.35;9.20;;;;;;;23.49;55.09;99168.59;5078490;28;20025;-23
2021/07/18 04:04:04;;;;;;;12.13;8.13;;;;;;;23.40;54.65;99161.25;5076578;28;20462;-23
2021/07/18 04:06:30;;;;;;;18.65;8.10;;;;;;;23.55;54.08;99165.34;5060288;28;20032;-23
2021/07/18 04:08:55;;;;;;;10.98;7.93;;;;;;;23.43;54.67;99165.25;5077178;28;20024;-23
2021/07/18 04:11:21;;;;;;;16.15;8.95;;;;;;;23.28;54.82;99147.56;5076693;28;20388;-23
2021/07/18 04:13:46;;;;;;;16.60;8.60;;;;;;;23.09;55.36;99147.94;5078370;28;20028;-23
2021/07/18 04:16:12;;;;;;;16.50;8.90;;;;;;;23.21;55.31;99161.66;5083222;28;20081;-23
2021/07/18 04:18:37;;;;;;;10.80;7.35;;;;;;;22.96;55.65;99157.06;5088890;28;20031;-23
2021/07/18 04:21:03;;;;;;;11.40;7.82;;;;;;;22.75;56.90;99149.56;5088592;28;20035;-23
2021/07/18 04:23:28;;;;;;;14.25;8.00;;;;;;;23.10;55.29;99138.66;5089078;28;20760;-23
2021/07/18 04:25:54;;;;;;;13.93;8.38;;;;;;;23.66;54.45;99158.44;5088497;28;20053;-23
2021/07/18 04:28:19;;;;;;;16.05;7.68;;;;;;;23.95;53.59;99165.03;5088449;28;20085;-23
2021/07/18 04:30:45;;;;;;;11.45;8.43;;;;;;;23.77;53.49;99164.31;5088365;28;20039;-23
2021/07/18 04:33:10;;;;;;;14.27;8.18;;;;;;;23.51;54.30;99169.84;5088397;28;20040;-24
2021/07/18 04:35:36;;;;;;;12.95;7.75;;;;;;;23.41;54.53;99156.63;5088679;28;20874;-23
2021/07/18 04:38:03;;;;;;;17.17;8.07;;;;;;;23.76;54.38;99159.16;5088250;28;20024;-23
2021/07/18 04:40:28;;;;;;;16.47;7.90;;;;;;;23.79;53.61;99155.81;5088156;28;20089;-23
2021/07/18 04:42:54;;;;;;;13.02;7.50;;;;;;;24.07;53.44;99186.09;5088309;28;20262;-23
2021/07/18 04:45:20;;;;;;;11.43;7.13;;;;;;;24.03;53.52;99175.06;5070043;28;20039;-23
2021/07/18 04:47:47;;;;;;;13.90;7.90;;;;;;;24.18;53.25;99172.88;5088066;28;20506;-23
2021/07/18 04:50:13;;;;;;;11.43;7.45;;;;;;;24.21;53.36;99170.28;5088224;28;20032;-23
2021/07/18 04:52:38;;;;;;;9.35;6.72;;;;;;;24.50;52.22;99176.00;5087493;28;20105;-23
2021/07/18 04:55:04;;;;;;;10.05;7.07;;;;;;;24.57;51.97;99179.00;5069360;28;20068;-23
2021/07/18 04:57:30;;;;;;;13.52;7.88;;;;;;;24.72;51.92;99186.56;5087915;28;20035;-23
2021/07/18 04:59:55;;;;;;;12.57;7.10;;;;;;;24.51;52.34;99185.81;5069833;28;20032;-23
2021/07/18 05:02:21;;;;;;;11.35;7.32;;;;;;;24.70;51.92;99199.72;5088034;28;20024;-23
2021/07/18 05:04:46;;;;;;;11.27;7.65;;;;;;;24.84;52.20;99194.00;5087967;28;20031;-23
2021/07/18 05:07:12;;;;;;;13.63;7.85;;;;;;;24.79;52.29;99184.09;5069630;28;20032;-23
2021/07/18 05:09:37;;;;;;;15.45;8.02;;;;;;;24.80;52.67;99185.69;5087638;28;20462;-23
2021/07/18 05:12:03;;;;;;;11.00;8.00;;;;;;;24.86;52.63;99192.50;5069439;28;20403;-23
2021/07/18 05:14:29;;;;;;;13.13;7.70;;;;;;;24.91;52.78;99190.72;5087587;28;20081;-23
2021/07/18 05:16:54;;;;;;;12.40;7.97;;;;;;;24.89;52.70;99195.72;5087739;28;20047;-23
2021/07/18 05:19:20;;;;;;;13.65;7.65;;;;;;;24.82;52.90;99191.59;5087765;28;20819;-23
2021/07/18 05:21:45;;;;;;;14.23;8.00;;;;;;;24.94;53.00;99199.03;5087719;28;20058;-23
2021/07/18 05:24:11;;;;;;;12.30;7.72;;;;;;;24.84;53.45;99200.25;5087478;28;20049;-23
2021/07/18 05:26:36;;;;;;;12.30;8.30;;;;;;;24.77;53.70;99194.53;5087392;28;20548;-23
2021/07/18 05:29:01;;;;;;;17.25;10.10;;;;;;;24.71;54.23;99195.88;5087428;28;20039;-23
2021/07/18 05:31:27;;;;;;;16.58;9.77;;;;;;;25.05;53.69;99204.88;5087381;28;20035;-23
2021/07/18 05:33:52;;;;;;;14.82;9.80;;;;;;;25.73;51.86;99200.91;5087479;28;20467;-23
2021/07/18 05:36:18;;;;;;;19.25;10.00;;;;;;;25.85;51.54;99203.63;5087354;28;20036;-23
2021/07/18 05:38:43;;;;;;;17.42;10.15;;;;;;;25.63;52.12;99196.69;5087381;28;20028;-23
2021/07/18 05:41:09;;;;;;;12.63;9.43;;;;;;;25.62;52.22;99195.91;5087347;28;20487;-23
2021/07/18 05:43:34;;;;;;;18.15;10.07;;;;;;;25.61;52.20;99198.97;5087500;28;20119;-23
2021/07/18 05:46:00;;;;;;;15.52;9.50;;;;;;;25.40;53.32;99193.63;5087221;28;20024;-23
2021/07/18 05:48:25;;;;;;;14.10;9.98;;;;;;;25.59;53.20;99196.56;5087165;28;20039;-23
2021/07/18 05:50:51;;;;;;;16.05;9.10;;;;;;;25.75;52.86;99206.81;5087193;28;20028;-23
2021/07/18 05:53:17;;;;;;;14.10;9.63;;;;;;;25.83;52.70;99200.47;5087209;28;20044;-23
2021/07/18 05:55:42;;;;;;;13.80;9.00;;;;;;;26.31;52.30;99193.34;5068671;28;20048;-23
2021/07/18 05:58:08;;;;;;;12.05;9.88;;;;;;;26.19;51.91;99191.44;5069033;28;20056;-23
2021/07/18 06:00:33;;;;;;;18.13;9.20;;;;;;;26.20;52.71;99197.72;5087077;28;20032;-23
2021/07/18 06:02:59;;;;;;;11.23;8.77;;;;;;;26.24;52.50;99193.94;5086930;28;20411;-23
2021/07/18 06:05:24;;;;;;;12.40;8.45;;;;;;;26.38;52.72;99187.31;5090192;28;20031;-23
2021/07/18 06:07:50;;;;;;;16.35;9.20;;;;;;;26.52;52.69;99192.38;5091162;28;20028;-23
2021/07/18 06:10:15;;;;;;;13.82;8.98;;;;;;;26.77;52.28;99184.91;5091077;28;20035;-23
2021/07/18 06:12:41;;;;;;;11.05;9.05;;;;;;;26.58;52.36;99188.28;5091382;28;20028;-23
2021/07/18 06:15:07;;;;;;;14.05;8.70;;;;;;;26.55;52.87;99191.69;5091371;28;20040;-23
2021/07/18 06:17:35;;;;;;;16.20;8.98;;;;;;;26.90;52.47;99186.44;5090798;28;20024;-23
2021/07/18 06:20:01;;;;;;;15.63;9.63;;;;;;;26.81;52.50;99181.13;5091267;28;20035;-23
2021/07/18 06:22:27;;;;;;;12.55;8.40;;;;;;;26.67;52.73;99188.16;5091068;28;20028;-23
2021/07/18 06:24:52;;;;;;;16.80;10.68;;;;;;;26.62;53.39;99180.97;5090615;28;20028;-23
2021/07/18 06:27:17;;;;;;;15.25;9.00;;;;;;;26.79;53.46;99182.63;5091001;28;20380;-23
2021/07/18 06:29:43;;;;;;;11.82;7.22;;;;;;;26.99;51.52;99181.63;5090917;28;20039;-23
2021/07/18 06:32:08;;;;;;;18.55;10.73;;;;;;;26.89;52.41;99173.09;5090888;28;20032;-23
2021/07/18 06:34:34;;;;;;;13.82;8.43;;;;;;;27.25;51.88;99181.13;5090473;28;20027;-23
2021/07/18 06:37:00;;;;;;;15.18;9.48;;;;;;;27.37;51.27;99183.00;5090550;28;20089;-23
2021/07/18 06:39:25;;;;;;;12.85;8.30;;;;;;;27.13;51.21;99172.16;5090735;28;20472;-23
2021/07/18 06:41:51;;;;;;;20.00;9.90;;;;;;;27.04;52.08;99172.34;5090652;28;20562;-23
2021/07/18 06:44:16;;;;;;;15.13;8.02;;;;;;;27.05;52.03;99176.66;5090601;28;20028;-23
2021/07/18 06:46:42;;;;;;;15.13;8.40;;;;;;;27.26;50.61;99176.47;5072144;28;20032;-23
2021/07/18 06:49:07;;;;;;;14.50;8.23;;;;;;;27.46;50.61;99166.38;5090189;28;20460;-23
2021/07/18 06:51:33;;;;;;;11.57;7.95;;;;;;;27.49;50.19;99178.59;5090373;28;20527;-23
2021/07/18 06:53:58;;;;;;;16.48;8.50;;;;;;;27.67;50.26;99173.53;5090115;28;20060;-23
2021/07/18 06:56:24;;;;;;;14.32;8.20;;;;;;;27.74;49.80;99169.00;5090634;28;20478;-23
2021/07/18 06:58:49;;;;;;;15.95;8.20;;;;;;;27.87;49.01;99167.00;5090093;28;20040;-23
2021/07/18 07:01:15;;;;;;;14.80;7.90;;;;;;;27.60;50.43;99158.53;5090013;28;20449;-23
2021/07/18 07:03:40;;;;;;;13.82;7.53;;;;;;;27.71;49.70;99160.72;5090578;28;20032;-23
2021/07/18 07:06:06;;;;;;;13.15;7.15;;;;;;;27.91;49.80;99161.56;5090391;28;20027;-23
2021/07/18 07:08:31;;;;;;;14.45;7.68;;;;;;;27.71;50.67;99152.50;5089966;28;20031;-23
2021/07/18 07:10:57;;;;;;;13.75;8.20;;;;;;;27.72;49.63;99154.06;5089943;28;20415;-23
2021/07/18 07:13:22;;;;;;;10.68;7.22;;;;;;;27.80;48.84;99147.63;5089906;28;20028;-23
2021/07/18 07:15:48;;;;;;;12.60;7.53;;;;;;;27.72;49.32;99132.94;5071246;28;20032;-23
2021/07/18 07:18:13;;;;;;;10.82;7.35;;;;;;;27.85;49.51;99136.41;5090004;28;20081;-23
2021/07/18 07:20:38;;;;;;;13.70;7.28;;;;;;;28.19;48.72;99128.50;5089954;28;20180;-23
2021/07/18 07:23:04;;;;;;;10.02;7.88;;;;;;;28.17;48.55;99139.84;5089663;28;20038;-23
2021/07/18 07:25:29;;;;;;;14.10;8.18;;;;;;;28.49;49.16;99147.16;5089960;28;20035;-23
2021/07/18 07:27:55;;;;;;;10.40;7.15;;;;;;;28.11;48.52;99148.72;5089886;28;20085;-23
2021/07/18 07:30:20;;;;;;;14.63;7.43;;;;;;;28.39;48.66;99149.28;5089668;28;20419;-23
2021/07/18 07:32:46;;;;;;;13.70;7.70;;;;;;;28.48;48.88;99140.06;5089357;28;20062;-23
2021/07/18 07:35:12;;;;;;;12.30;7.63;;;;;;;28.43;49.41;99128.22;5089263;28;20036;-23
2021/07/18 07:37:39;;;;;;;10.20;7.63;;;;;;;28.48;47.50;99142.81;5089274;28;20032;-23
2021/07/18 07:40:05;;;;;;;11.70;7.53;;;;;;;28.44;47.13;99124.34;5089503;28;20028;-23
2021/07/18 07:42:31;;;;;;;9.57;7.22;;;;;;;28.96;46.28;99135.13;5089867;28;20038;-23
2021/07/18 07:44:56;;;;;;;12.55;7.78;;;;;;;28.76;47.17;99129.66;5089051;28;20032;-23
2021/07/18 07:47:21;;;;;;;12.05;7.70;;;;;;;29.23;46.21;99142.28;5089575;28;20062;-22
2021/07/18 07:49:47;;;;;;;12.50;7.47;;;;;;;29.52;47.27;99142.72;5089040;28;20027;-23
2021/07/18 07:52:13;;;;;;;13.77;7.18;;;;;;;29.59;44.97;99142.06;5089297;28;20039;-23
2021/07/18 07:54:39;;;;;;;12.38;7.57;;;;;;;29.61;45.61;99123.25;5089084;28;20056;-23
2021/07/18 07:57:05;;;;;;;12.85;6.57;;;;;;;29.32;45.20;99128.31;5088096;28;20036;-23
2021/07/18 07:59:30;;;;;;;13.48;6.82;;;;;;;29.53;45.85;99138.03;5088485;28;20036;-23
2021/07/18 08:01:57;;;;;;;11.95;6.85;;;;;;;29.64;44.72;99142.53;5089170;28;20038;-23
2021/07/18 08:04:23;;;;;;;13.15;7.32;;;;;;;29.25;45.34;99128.97;5089123;28;20089;-23
2021/07/18 08:06:49;;;;;;;12.10;6.80;;;;;;;29.39;45.73;99138.59;5089011;28;20044;-23
2021/07/18 08:09:14;;;;;;;13.57;7.78;;;;;;;29.80;45.70;99130.63;5089315;28;20032;-23
2021/07/18 08:11:40;;;;;;;13.30;6.35;;;;;;;29.42;45.22;99121.38;5089234;28;20043;-23
2021/07/18 08:14:05;;;;;;;12.15;7.10;;;;;;;29.54;45.06;99128.63;5088678;28;20485;-23
2021/07/18 08:16:31;;;;;;;11.60;6.47;;;;;;;29.72;43.96;99126.97;5088791;28;20032;-23
2021/07/18 08:18:56;;;;;;;12.43;7.15;;;;;;;29.99;44.29;99127.72;5088621;28;20024;-23
2021/07/18 08:21:21;;;;;;;12.65;7.10;;;;;;;30.02;44.10;99121.50;5088892;28;20051;-23
2021/07/18 08:23:50;;;;;;;11.85;6.95;;;;;;;30.05;44.42;99109.75;5088517;28;20036;-23
2021/07/18 08:26:20;;;;;;;17.35;6.82;;;;;;;30.07;43.61;99103.09;5087994;28;20193;-23
2021/07/18 08:28:46;;;;;;;9.90;6.78;;;;;;;30.18;45.53;99112.25;5087876;28;20472;-23
2021/07/18 08:31:11;;;;;;;10.80;6.70;;;;;;;30.40;44.38;99103.13;5088707;28;20040;-23
2021/07/18 08:33:37;;;;;;;8.07;6.70;;;;;;;30.34;44.22;99099.13;5070699;28;20036;-22
2021/07/18 08:36:02;;;;;;;10.82;6.55;;;;;;;30.46;43.24;99100.81;5088430;28;20032;-22
2021/07/18 08:38:28;;;;;;;11.90;6.70;;;;;;;30.81;42.81;99100.41;5070223;28;20407;-23
2021/07/18 08:40:54;;;;;;;11.65;6.20;;;;;;;30.94;42.61;99102.91;5087797;28;20040;-22
2021/07/18 08:43:19;;;;;;;12.50;6.75;;;;;;;30.98;41.67;99089.97;5088213;28;20036;-23
2021/07/18 08:45:46;;;;;;;11.82;6.20;;;;;;;30.76;42.48;99086.97;5069543;28;20024;-22
2021/07/18 08:48:11;;;;;;;12.35;6.20;;;;;;;30.41;43.15;99077.19;5088058;28;20391;-22
2021/07/18 08:50:37;;;;;;;13.57;6.38;;;;;;;31.24;42.12;99086.22;5069953;28;20589;-22
2021/07/18 08:53:03;;;;;;;9.57;5.72;;;;;;;31.33;40.26;99086.69;5087897;28;20047;-22
2021/07/18 08:55:28;;;;;;;9.35;5.80;;;;;;;31.35;40.17;99091.84;5088081;28;20080;-22
2021/07/18 08:57:54;;;;;;;12.25;7.35;;;;;;;31.62;40.04;99071.16;5087737;28;20048;-22
2021/07/18 09:00:21;;;;;;;9.45;6.15;;;;;;;31.74;40.08;99088.56;5088314;28;20036;-23
2021/07/18 09:02:47;;;;;;;9.88;5.85;;;;;;;31.93;40.06;99093.75;5087695;28;20067;-23
2021/07/18 09:05:12;;;;;;;11.48;5.72;;;;;;;32.26;39.32;99080.91;5087952;28;20692;-23
2021/07/18 09:07:48;;;;;;;11.35;5.50;;;;;;;32.40;40.19;99077.41;5087996;28;20059;-23
2021/07/18 09:10:14;;;;;;;11.23;6.25;;;;;;;32.39;37.61;99067.56;5069649;28;20110;-22
2021/07/18 09:12:40;;;;;;;14.02;8.38;;;;;;;32.86;38.11;99075.97;5086830;28;20035;-23
2021/07/18 09:15:06;;;;;;;9.70;5.93;;;;;;;32.48;38.18;99067.19;5087837;28;20050;-23
2021/07/18 09:17:35;;;;;;;9.75;5.55;;;;;;;32.22;39.47;99060.81;5069504;28;20089;-23
2021/07/18 09:20:21;;;;;;;22.10;13.88;;;;;;;31.87;39.58;99058.69;5087668;28;20031;-22
2021/07/18 09:22:46;;;;;;;18.65;6.75;;;;;;;32.40;39.80;99058.09;5081065;28;20221;-23
2021/07/18 09:25:12;;;;;;;15.05;6.32;;;;;;;32.09;39.65;99048.56;5078188;28;20028;-22
2021/07/18 09:27:38;;;;;;;11.80;5.90;;;;;;;32.32;39.46;99051.78;5059451;28;20487;-22
2021/07/18 09:30:04;;;;;;;14.63;5.25;;;;;;;33.02;35.50;99055.03;5075258;28;20024;-22
2021/07/18 09:32:30;;;;;;;10.90;5.93;;;;;;;32.76;35.48;99053.47;5075952;28;20052;-22
2021/07/18 09:35:00;;;;;;;7.82;5.35;;;;;;;32.91;35.99;99045.19;5076788;28;20131;-22
2021/07/18 09:37:27;;;;;;;11.88;5.78;;;;;;;32.98;35.49;99047.94;5075599;28;20119;-23
2021/07/18 09:40:17;;;;;;;10.95;5.55;;;;;;;33.20;34.78;99046.78;5075844;28;20103;-22
2021/07/18 09:42:50;;;;;;;152.07;98.47;;;;;;;33.66;35.03;99055.38;5062728;28;20036;-22
2021/07/18 09:45:20;;;;;;;11.68;7.07;;;;;;;33.59;35.02;99045.91;5056969;28;20464;-22
2021/07/18 09:50:41;;;;;;;13.02;5.13;;;;;;;33.42;35.14;99046.72;4808132;27;8346597;-23
2021/07/18 09:53:12;;;;;;;;;;;;;;;33.78;34.92;99043.91;5081087;28;20036;-22
2021/07/18 09:55:39;;;;;;;10.63;5.43;;;;;;;33.96;34.50;99039.06;5081855;28;20009;-23
2021/07/18 09:58:04;;;;;;;9.38;5.38;;;;;;;34.32;34.75;99043.66;5081145;28;20115;-23
2021/07/18 10:00:42;;;;;;;11.40;5.38;;;;;;;34.04;33.72;99050.88;5081941;28;20498;-23
2021/07/18 10:03:17;;;;;;;11.07;5.78;;;;;;;34.13;34.89;99044.94;5083109;28;20043;-23
2021/07/18 10:05:43;;;;;;;9.88;5.40;;;;;;;33.95;35.29;99048.56;5079810;28;20568;-23
2021/07/18 10:08:10;;;;;;;11.05;6.00;;;;;;;33.98;34.75;99030.34;5071752;28;20480;-23
2021/07/18 10:10:35;;;;;;;12.30;6.20;;;;;;;34.50;33.43;99024.94;5070520;28;20056;-23
2021/07/18 10:13:02;;;;;;;12.23;6.47;;;;;;;34.97;33.50;99016.28;5063702;28;20125;-23
2021/07/18 10:15:28;;;;;;;;;;;;;;;34.92;32.78;99031.38;5071065;28;20418;-24
2021/07/18 10:17:54;;;;;;;11.90;5.70;;;;;;;34.68;32.53;99033.16;5073380;28;19908;-24
2021/07/18 10:20:19;;;;;;;10.70;5.68;;;;;;;34.62;33.39;99026.44;5075746;28;20805;-24
2021/07/18 10:22:45;;;;;;;9.32;5.43;;;;;;;34.39;33.23;99027.00;5074870;28;20021;-23
2021/07/18 10:25:14;;;;;;;11.73;5.70;;;;;;;34.32;34.07;99024.28;5070823;28;20086;-23
2021/07/18 10:27:40;;;;;;;12.35;6.18;;;;;;;34.37;33.75;99019.13;5070715;28;20048;-23
2021/07/18 10:30:06;;;;;;;13.23;5.47;;;;;;;34.68;32.65;98999.94;5080411;28;20021;-23
2021/07/18 10:32:32;;;;;;;7.97;5.40;;;;;;;35.10;32.26;99008.25;5083222;28;20113;-24
2021/07/18 10:34:59;;;;;;;11.52;5.47;;;;;;;34.81;33.04;98998.22;5082573;28;20035;-23
2021/07/18 10:37:36;;;;;;;12.10;5.50;;;;;;;34.83;33.06;98997.03;5082026;28;20032;-23
2021/07/18 10:40:01;;;;;;;7.78;5.43;;;;;;;35.11;32.42;99005.09;5071141;28;20024;-24
2021/07/18 10:42:31;;;;;;;12.95;5.63;;;;;;;34.77;32.39;98991.94;5064304;28;20040;-24
2021/07/18 10:44:57;;;;;;;12.40;5.35;;;;;;;35.52;32.15;98998.72;5082399;28;20115;-23
2021/07/18 10:47:22;;;;;;;8.45;5.32;;;;;;;35.34;31.98;98995.38;5083367;28;20032;-23
2021/07/18 10:50:14;;;;;;;11.05;5.75;;;;;;;35.79;32.30;98986.94;5081834;28;20058;-23
2021/07/18 10:52:39;;;;;;;8.57;5.50;;;;;;;36.16;30.49;98988.03;5077779;28;20566;-23
2021/07/18 10:55:25;;;;;;;9.43;5.40;;;;;;;36.08;31.58;98986.53;5082343;28;20158;-22
2021/07/18 10:57:53;;;;;;;10.05;5.45;;;;;;;36.19;30.09;98976.13;5081833;28;20469;-22
2021/07/18 11:00:25;;;;;;;12.55;5.45;;;;;;;36.03;31.40;98981.47;5071249;28;20077;-23
2021/07/18 11:03:05;;;;;;;7.13;5.07;;;;;;;36.13;29.93;98972.22;5057669;28;20037;-23
2021/07/18 11:05:57;;;;;;;10.00;6.28;;;;;;;36.22;31.12;98963.38;5040104;28;20105;-23
2021/07/18 11:08:22;;;;;;;8.82;5.55;;;;;;;35.82;31.37;98963.94;5038677;28;20040;-23
2021/07/18 11:10:57;;;;;;;11.18;5.15;;;;;;;36.67;31.15;98966.63;5059341;28;20087;-23
2021/07/18 11:13:22;;;;;;;8.35;5.43;;;;;;;36.87;29.83;98963.13;5068048;28;20036;-23
2021/07/18 11:15:48;;;;;;;11.88;5.50;;;;;;;36.77;30.44;98949.00;5069996;28;20040;-22
2021/07/18 11:18:33;;;;;;;9.18;5.30;;;;;;;37.00;31.29;98950.97;5069638;28;20484;-22
2021/07/18 11:20:59;;;;;;;9.25;5.88;;;;;;;36.85;30.45;98954.44;5069761;28;20511;-22
2021/07/18 11:23:42;;;;;;;14.10;6.00;;;;;;;35.82;31.02;98966.69;5051769;28;20033;-22